CPX244 Details

Departure: Norman Manley International Airport (MKJP)
Arrival: Miami International Airport (KMIA) at N/A
Route: UCA UA301 URSUS FLIPR6
Notes:


Current Weather Information
MKJP 230800Z 35004KT 9999 FEW022 27/22 Q1010
KMIA 230753Z 02003KT 10SM FEW009 FEW015 26/23 A2996 RMK AO2 SLP145 T02610228